sensor_id;sensor_type;location;lat;lon;timestamp;pressure;altitude;pressure_sealevel;temperature;humidity
5284;BME280;15377;48.540;9.268;2023-06-14T00:00:04;97013.19;;;13.03;100.00
5284;BME280;15377;48.540;9.268;2023-06-14T00:02:30;97005.69;;;13.14;100.00
5284;BME280;15377;48.540;9.268;2023-06-14T00:04:56;97014.78;;;13.37;100.00
5284;BME280;15377;48.540;9.268;2023-06-14T00:07:34;97011.47;;;13.27;100.00
5284;BME280;15377;48.540;9.268;2023-06-14T00:09:59;97010.91;;;13.07;100.00
5284;BME280;15377;48.540;9.268;2023-06-14T00:12:25;97005.97;;;12.74;100.00
5284;BME280;15377;48.540;9.268;2023-06-14T00:14:50;97023.53;;;12.66;100.00
5284;BME280;15377;48.540;9.268;2023-06-14T00:17:15;97000.41;;;12.58;100.00
5284;BME280;15377;48.540;9.268;2023-06-14T00:19:41;97014.44;;;12.60;100.00
5284;BME280;15377;48.540;9.268;2023-06-14T00:22:07;97006.16;;;12.54;100.00
5284;BME280;15377;48.540;9.268;2023-06-14T00:24:32;96992.78;;;12.42;100.00
5284;BME280;15377;48.540;9.268;2023-06-14T00:26:57;97017.28;;;12.29;100.00
5284;BME280;15377;48.540;9.268;2023-06-14T00:29:23;97013.97;;;12.19;100.00
5284;BME280;15377;48.540;9.268;2023-06-14T00:31:48;97011.09;;;12.03;100.00
5284;BME280;15377;48.540;9.268;2023-06-14T00:34:13;97008.22;;;12.23;100.00
5284;BME280;15377;48.540;9.268;2023-06-14T00:36:39;97006.25;;;12.29;100.00
5284;BME280;15377;48.540;9.268;2023-06-14T00:39:05;97013.22;;;12.19;100.00
5284;BME280;15377;48.540;9.268;2023-06-14T00:41:31;97008.06;;;12.01;100.00
5284;BME280;15377;48.540;9.268;2023-06-14T00:43:56;97010.91;;;11.81;100.00
5284;BME280;15377;48.540;9.268;2023-06-14T00:46:22;97004.50;;;11.64;100.00
5284;BME280;15377;48.540;9.268;2023-06-14T00:48:48;97007.41;;;11.55;100.00
5284;BME280;15377;48.540;9.268;2023-06-14T00:51:13;97011.13;;;11.52;100.00
5284;BME280;15377;48.540;9.268;2023-06-14T00:53:39;96990.44;;;11.36;100.00
5284;BME280;15377;48.540;9.268;2023-06-14T00:56:06;97000.91;;;11.32;100.00
5284;BME280;15377;48.540;9.268;2023-06-14T00:58:32;96999.31;;;11.20;100.00
5284;BME280;15377;48.540;9.268;2023-06-14T01:00:57;96991.94;;;11.12;100.00
5284;BME280;15377;48.540;9.268;2023-06-14T01:03:23;97001.19;;;11.09;100.00
5284;BME280;15377;48.540;9.268;2023-06-14T01:08:50;96981.53;;;10.76;100.00
5284;BME280;15377;48.540;9.268;2023-06-14T01:11:28;97005.19;;;10.88;100.00
5284;BME280;15377;48.540;9.268;2023-06-14T01:13:55;96997.34;;;10.81;100.00
5284;BME280;15377;48.540;9.268;2023-06-14T01:16:21;97003.00;;;10.92;100.00
5284;BME280;15377;48.540;9.268;2023-06-14T01:18:47;96997.06;;;10.99;100.00
5284;BME280;15377;48.540;9.268;2023-06-14T01:21:24;97003.25;;;11.14;100.00
5284;BME280;15377;48.540;9.268;2023-06-14T01:23:51;97004.00;;;11.40;100.00
5284;BME280;15377;48.540;9.268;2023-06-14T01:26:23;97007.56;;;11.71;100.00
5284;BME280;15377;48.540;9.268;2023-06-14T01:28:49;97019.44;;;11.83;100.00
5284;BME280;15377;48.540;9.268;2023-06-14T01:31:19;96997.38;;;11.83;100.00
5284;BME280;15377;48.540;9.268;2023-06-14T01:33:48;97009.34;;;12.05;100.00
5284;BME280;15377;48.540;9.268;2023-06-14T01:36:16;97004.81;;;12.02;100.00
5284;BME280;15377;48.540;9.268;2023-06-14T01:38:44;97008.81;;;12.01;100.00
5284;BME280;15377;48.540;9.268;2023-06-14T01:41:09;97003.66;;;11.83;100.00
5284;BME280;15377;48.540;9.268;2023-06-14T01:43:35;97003.53;;;11.67;100.00
5284;BME280;15377;48.540;9.268;2023-06-14T01:46:02;97005.28;;;11.64;100.00
5284;BME280;15377;48.540;9.268;2023-06-14T01:48:28;97001.78;;;11.44;100.00
5284;BME280;15377;48.540;9.268;2023-06-14T01:50:53;97004.22;;;11.36;100.00
5284;BME280;15377;48.540;9.268;2023-06-14T01:53:19;97008.97;;;11.36;100.00
5284;BME280;15377;48.540;9.268;2023-06-14T01:55:44;96995.56;;;11.49;100.00
5284;BME280;15377;48.540;9.268;2023-06-14T01:58:14;96990.44;;;11.36;100.00
5284;BME280;15377;48.540;9.268;2023-06-14T02:00:41;97012.53;;;11.42;100.00
5284;BME280;15377;48.540;9.268;2023-06-14T02:03:08;96999.25;;;11.15;100.00
5284;BME280;15377;48.540;9.268;2023-06-14T02:05:34;97011.63;;;11.05;100.00
5284;BME280;15377;48.540;9.268;2023-06-14T02:08:00;97014.41;;;10.85;100.00
5284;BME280;15377;48.540;9.268;2023-06-14T02:10:25;97011.44;;;10.69;100.00
5284;BME280;15377;48.540;9.268;2023-06-14T02:12:51;97001.97;;;10.50;100.00
5284;BME280;15377;48.540;9.268;2023-06-14T02:15:17;97012.91;;;10.44;100.00
5284;BME280;15377;48.540;9.268;2023-06-14T02:17:43;97013.69;;;10.30;100.00
5284;BME280;15377;48.540;9.268;2023-06-14T02:20:10;97006.81;;;10.20;100.00
5284;BME280;15377;48.540;9.268;2023-06-14T02:22:35;97014.09;;;10.23;100.00
5284;BME280;15377;48.540;9.268;2023-06-14T02:25:01;97012.66;;;10.28;100.00
5284;BME280;15377;48.540;9.268;2023-06-14T02:27:26;97007.63;;;10.26;100.00
5284;BME280;15377;48.540;9.268;2023-06-14T02:29:52;97003.66;;;10.27;100.00
5284;BME280;15377;48.540;9.268;2023-06-14T02:32:17;97020.44;;;10.29;100.00
5284;BME280;15377;48.540;9.268;2023-06-14T02:34:42;97010.09;;;10.24;100.00
5284;BME280;15377;48.540;9.268;2023-06-14T02:37:08;97016.78;;;10.18;100.00
5284;BME280;15377;48.540;9.268;2023-06-14T02:39:34;97012.44;;;10.11;100.00
5284;BME280;15377;48.540;9.268;2023-06-14T02:42:00;97016.69;;;10.12;100.00
5284;BME280;15377;48.540;9.268;2023-06-14T02:44:26;97012.22;;;10.15;100.00
5284;BME280;15377;48.540;9.268;2023-06-14T02:46:53;97015.25;;;10.02;100.00
5284;BME280;15377;48.540;9.268;2023-06-14T02:49:19;97015.66;;;9.95;100.00
5284;BME280;15377;48.540;9.268;2023-06-14T02:51:44;97014.09;;;10.23;100.00
5284;BME280;15377;48.540;9.268;2023-06-14T02:54:10;97001.22;;;10.15;100.00
5284;BME280;15377;48.540;9.268;2023-06-14T02:56:36;97019.16;;;10.10;100.00
5284;BME280;15377;48.540;9.268;2023-06-14T02:59:02;97015.25;;;10.02;100.00
5284;BME280;15377;48.540;9.268;2023-06-14T03:01:27;97009.91;;;10.28;100.00
5284;BME280;15377;48.540;9.268;2023-06-14T03:04:00;97022.25;;;10.72;100.00
5284;BME280;15377;48.540;9.268;2023-06-14T03:06:27;97018.69;;;10.66;100.00
5284;BME280;15377;48.540;9.268;2023-06-14T03:08:54;97011.38;;;10.43;100.00
5284;BME280;15377;48.540;9.268;2023-06-14T03:11:20;97014.66;;;10.27;100.00
5284;BME280;15377;48.540;9.268;2023-06-14T03:13:45;96995.19;;;9.96;100.00
5284;BME280;15377;48.540;9.268;2023-06-14T03:16:12;97006.19;;;9.96;100.00
5284;BME280;15377;48.540;9.268;2023-06-14T03:18:37;97018.88;;;10.08;100.00
5284;BME280;15377;48.540;9.268;2023-06-14T03:21:03;97016.22;;;9.99;100.00
5284;BME280;15377;48.540;9.268;2023-06-14T03:23:28;97025.97;;;10.00;100.00
5284;BME280;15377;48.540;9.268;2023-06-14T03:25:54;97026.59;;;10.39;100.00
5284;BME280;15377;48.540;9.268;2023-06-14T03:28:19;97024.81;;;10.56;100.00
5284;BME280;15377;48.540;9.268;2023-06-14T03:30:45;97016.91;;;10.63;100.00
5284;BME280;15377;48.540;9.268;2023-06-14T03:33:10;97031.16;;;10.82;100.00
5284;BME280;15377;48.540;9.268;2023-06-14T03:35:36;97018.91;;;10.63;100.00
5284;BME280;15377;48.540;9.268;2023-06-14T03:38:01;97042.13;;;10.62;100.00
5284;BME280;15377;48.540;9.268;2023-06-14T03:40:27;97041.34;;;10.41;100.00
5284;BME280;15377;48.540;9.268;2023-06-14T03:42:54;97043.09;;;10.24;100.00
5284;BME280;15377;48.540;9.268;2023-06-14T03:45:19;97045.00;;;10.18;100.00
5284;BME280;15377;48.540;9.268;2023-06-14T03:47:44;97040.19;;;10.13;100.00
5284;BME280;15377;48.540;9.268;2023-06-14T03:50:10;97040.59;;;10.06;100.00
5284;BME280;15377;48.540;9.268;2023-06-14T03:52:36;97032.91;;;9.96;100.00
5284;BME280;15377;48.540;9.268;2023-06-14T03:55:02;97045.81;;;10.04;100.00
5284;BME280;15377;48.540;9.268;2023-06-14T03:57:29;97048.06;;;10.06;100.00
5284;BME280;15377;48.540;9.268;2023-06-14T03:59:54;97040.47;;;9.86;100.00
5284;BME280;15377;48.540;9.268;2023-06-14T04:02:20;97057.56;;;9.90;100.00
5284;BME280;15377;48.540;9.268;2023-06-14T04:04:48;97050.91;;;9.82;100.00
5284;BME280;15377;48.540;9.268;2023-06-14T04:07:14;97046.75;;;9.72;100.00
5284;BME280;15377;48.540;9.268;2023-06-14T04:09:40;97058.69;;;9.69;100.00
5284;BME280;15377;48.540;9.268;2023-06-14T04:12:06;97068.34;;;9.79;100.00
5284;BME280;15377;48.540;9.268;2023-06-14T04:14:32;97078.56;;;9.93;100.00
5284;BME280;15377;48.540;9.268;2023-06-14T04:16:58;97077.06;;;9.92;100.00
5284;BME280;15377;48.540;9.268;2023-06-14T04:19:23;97074.03;;;9.90;100.00
5284;BME280;15377;48.540;9.268;2023-06-14T04:21:49;97080.78;;;10.04;100.00
5284;BME280;15377;48.540;9.268;2023-06-14T04:24:15;97082.97;;;10.14;100.00
5284;BME280;15377;48.540;9.268;2023-06-14T04:26:44;97092.59;;;10.24;100.00
5284;BME280;15377;48.540;9.268;2023-06-14T04:29:11;97086.16;;;10.27;100.00
5284;BME280;15377;48.540;9.268;2023-06-14T04:31:43;97088.75;;;10.51;100.00
5284;BME280;15377;48.540;9.268;2023-06-14T04:34:09;97086.59;;;10.55;100.00
5284;BME280;15377;48.540;9.268;2023-06-14T04:36:41;97089.81;;;10.73;100.00
5284;BME280;15377;48.540;9.268;2023-06-14T04:39:17;97084.47;;;10.84;100.00
5284;BME280;15377;48.540;9.268;2023-06-14T04:41:43;97097.13;;;10.96;100.00
5284;BME280;15377;48.540;9.268;2023-06-14T04:44:09;97091.22;;;11.03;100.00
5284;BME280;15377;48.540;9.268;2023-06-14T04:46:35;97087.91;;;11.19;100.00
5284;BME280;15377;48.540;9.268;2023-06-14T04:49:09;97095.34;;;11.33;100.00
5284;BME280;15377;48.540;9.268;2023-06-14T04:51:35;97100.84;;;11.53;100.00
5284;BME280;15377;48.540;9.268;2023-06-14T04:54:02;97098.47;;;11.66;100.00
5284;BME280;15377;48.540;9.268;2023-06-14T04:56:29;97100.53;;;11.71;100.00
5284;BME280;15377;48.540;9.268;2023-06-14T04:58:55;97099.94;;;11.87;100.00
5284;BME280;15377;48.540;9.268;2023-06-14T05:01:22;97097.72;;;11.91;100.00
5284;BME280;15377;48.540;9.268;2023-06-14T05:03:49;97112.44;;;12.08;100.00
5284;BME280;15377;48.540;9.268;2023-06-14T05:06:15;97108.00;;;12.16;100.00
5284;BME280;15377;48.540;9.268;2023-06-14T05:08:40;97112.50;;;12.19;100.00
5284;BME280;15377;48.540;9.268;2023-06-14T05:11:06;97105.22;;;12.47;100.00
5284;BME280;15377;48.540;9.268;2023-06-14T05:13:31;97099.72;;;12.52;100.00
5284;BME280;15377;48.540;9.268;2023-06-14T05:15:58;97106.09;;;12.64;100.00
5284;BME280;15377;48.540;9.268;2023-06-14T05:18:24;97105.94;;;12.84;100.00
5284;BME280;15377;48.540;9.268;2023-06-14T05:20:50;97108.13;;;13.11;100.00
5284;BME280;15377;48.540;9.268;2023-06-14T05:23:16;97107.13;;;13.14;100.00
5284;BME280;15377;48.540;9.268;2023-06-14T05:25:42;97113.50;;;13.31;100.00
5284;BME280;15377;48.540;9.268;2023-06-14T05:28:08;97106.97;;;13.34;100.00
5284;BME280;15377;48.540;9.268;2023-06-14T05:30:33;97126.88;;;13.49;100.00
5284;BME280;15377;48.540;9.268;2023-06-14T05:32:59;97122.38;;;13.57;100.00
5284;BME280;15377;48.540;9.268;2023-06-14T05:35:24;97123.66;;;13.61;100.00
5284;BME280;15377;48.540;9.268;2023-06-14T05:37:52;97126.22;;;13.76;100.00
5284;BME280;15377;48.540;9.268;2023-06-14T05:40:17;97124.47;;;13.95;100.00
5284;BME280;15377;48.540;9.268;2023-06-14T05:42:43;97120.72;;;14.14;100.00
5284;BME280;15377;48.540;9.268;2023-06-14T05:45:09;97120.00;;;14.36;100.00
5284;BME280;15377;48.540;9.268;2023-06-14T05:47:34;97120.03;;;14.41;100.00
5284;BME280;15377;48.540;9.268;2023-06-14T05:50:00;97126.06;;;14.51;100.00
5284;BME280;15377;48.540;9.268;2023-06-14T05:52:25;97118.75;;;14.53;100.00
5284;BME280;15377;48.540;9.268;2023-06-14T05:54:50;97115.72;;;14.62;100.00
5284;BME280;15377;48.540;9.268;2023-06-14T05:57:15;97125.56;;;14.69;100.00
5284;BME280;15377;48.540;9.268;2023-06-14T05:59:41;97126.03;;;14.78;100.00
5284;BME280;15377;48.540;9.268;2023-06-14T06:02:06;97119.22;;;14.84;100.00
5284;BME280;15377;48.540;9.268;2023-06-14T06:04:32;97124.75;;;14.90;100.00
5284;BME280;15377;48.540;9.268;2023-06-14T06:06:57;97119.69;;;14.94;100.00
5284;BME280;15377;48.540;9.268;2023-06-14T06:09:22;97124.47;;;15.04;100.00
5284;BME280;15377;48.540;9.268;2023-06-14T06:11:48;97133.22;;;15.25;100.00
5284;BME280;15377;48.540;9.268;2023-06-14T06:14:13;97129.66;;;15.46;100.00
5284;BME280;15377;48.540;9.268;2023-06-14T06:16:39;97116.53;;;15.47;100.00
5284;BME280;15377;48.540;9.268;2023-06-14T06:19:04;97132.09;;;15.61;100.00
5284;BME280;15377;48.540;9.268;2023-06-14T06:21:29;97120.50;;;15.62;100.00
5284;BME280;15377;48.540;9.268;2023-06-14T06:23:55;97132.06;;;15.66;100.00
5284;BME280;15377;48.540;9.268;2023-06-14T06:26:22;97126.72;;;15.79;100.00
5284;BME280;15377;48.540;9.268;2023-06-14T06:28:47;97123.84;;;15.96;100.00
5284;BME280;15377;48.540;9.268;2023-06-14T06:31:12;97136.34;;;16.13;100.00
5284;BME280;15377;48.540;9.268;2023-06-14T06:33:38;97140.56;;;16.25;100.00
5284;BME280;15377;48.540;9.268;2023-06-14T06:36:05;97128.97;;;16.21;100.00
5284;BME280;15377;48.540;9.268;2023-06-14T06:38:30;97142.50;;;16.41;100.00
5284;BME280;15377;48.540;9.268;2023-06-14T06:40:56;97145.50;;;16.43;100.00
5284;BME280;15377;48.540;9.268;2023-06-14T06:43:22;97155.00;;;16.53;100.00
5284;BME280;15377;48.540;9.268;2023-06-14T06:45:47;97148.91;;;16.60;100.00
5284;BME280;15377;48.540;9.268;2023-06-14T06:48:13;97146.16;;;16.84;100.00
5284;BME280;15377;48.540;9.268;2023-06-14T06:50:38;97155.72;;;17.13;100.00
5284;BME280;15377;48.540;9.268;2023-06-14T06:53:04;97150.00;;;17.29;100.00
5284;BME280;15377;48.540;9.268;2023-06-14T06:55:30;97152.38;;;17.44;100.00
5284;BME280;15377;48.540;9.268;2023-06-14T06:57:55;97155.09;;;17.49;97.34
5284;BME280;15377;48.540;9.268;2023-06-14T07:00:21;97151.66;;;17.62;96.16
5284;BME280;15377;48.540;9.268;2023-06-14T07:02:46;97157.47;;;17.64;91.73
5284;BME280;15377;48.540;9.268;2023-06-14T07:05:12;97143.00;;;17.65;92.09
5284;BME280;15377;48.540;9.268;2023-06-14T07:07:37;97160.03;;;17.80;91.54
5284;BME280;15377;48.540;9.268;2023-06-14T07:10:04;97156.34;;;17.72;90.01
5284;BME280;15377;48.540;9.268;2023-06-14T07:12:31;97159.66;;;17.89;89.88
5284;BME280;15377;48.540;9.268;2023-06-14T07:14:58;97161.31;;;17.98;88.41
5284;BME280;15377;48.540;9.268;2023-06-14T07:17:24;97160.44;;;18.08;87.37
5284;BME280;15377;48.540;9.268;2023-06-14T07:19:50;97160.66;;;18.10;85.54
5284;BME280;15377;48.540;9.268;2023-06-14T07:22:16;97169.59;;;18.22;85.90
5284;BME280;15377;48.540;9.268;2023-06-14T07:24:41;97166.72;;;18.27;85.22
5284;BME280;15377;48.540;9.268;2023-06-14T07:27:07;97172.09;;;18.44;84.73
5284;BME280;15377;48.540;9.268;2023-06-14T07:29:33;97165.53;;;18.41;85.06
5284;BME280;15377;48.540;9.268;2023-06-14T07:31:58;97171.81;;;18.60;85.69
5284;BME280;15377;48.540;9.268;2023-06-14T07:34:23;97176.38;;;18.76;84.85
5284;BME280;15377;48.540;9.268;2023-06-14T07:36:49;97179.97;;;18.89;85.43
5284;BME280;15377;48.540;9.268;2023-06-14T07:39:14;97180.94;;;18.92;85.36
5284;BME280;15377;48.540;9.268;2023-06-14T07:41:40;97187.31;;;19.05;84.73
5284;BME280;15377;48.540;9.268;2023-06-14T07:44:05;97178.38;;;19.07;84.13
5284;BME280;15377;48.540;9.268;2023-06-14T07:46:31;97183.78;;;19.18;83.00
5284;BME280;15377;48.540;9.268;2023-06-14T07:48:56;97182.22;;;19.22;84.07
5284;BME280;15377;48.540;9.268;2023-06-14T07:51:22;97182.31;;;19.30;83.20
5284;BME280;15377;48.540;9.268;2023-06-14T07:53:48;97179.22;;;19.20;83.62
5284;BME280;15377;48.540;9.268;2023-06-14T07:56:14;97184.25;;;19.35;82.43
5284;BME280;15377;48.540;9.268;2023-06-14T07:58:39;97178.22;;;19.31;82.39
5284;BME280;15377;48.540;9.268;2023-06-14T08:01:05;97180.38;;;19.25;81.64
5284;BME280;15377;48.540;9.268;2023-06-14T08:03:33;97180.50;;;19.32;82.11
5284;BME280;15377;48.540;9.268;2023-06-14T08:05:58;97184.66;;;19.39;80.66
5284;BME280;15377;48.540;9.268;2023-06-14T08:08:24;97182.13;;;19.41;79.34
5284;BME280;15377;48.540;9.268;2023-06-14T08:10:49;97190.06;;;19.50;76.46
5284;BME280;15377;48.540;9.268;2023-06-14T08:13:15;97175.56;;;19.51;76.36
5284;BME280;15377;48.540;9.268;2023-06-14T08:15:40;97179.13;;;19.65;77.44
5284;BME280;15377;48.540;9.268;2023-06-14T08:18:05;97191.22;;;19.80;77.01
5284;BME280;15377;48.540;9.268;2023-06-14T08:20:31;97182.53;;;19.84;74.09
5284;BME280;15377;48.540;9.268;2023-06-14T08:22:57;97184.13;;;20.05;76.17
5284;BME280;15377;48.540;9.268;2023-06-14T08:25:23;97186.16;;;20.18;75.44
5284;BME280;15377;48.540;9.268;2023-06-14T08:27:48;97182.47;;;20.23;73.48
5284;BME280;15377;48.540;9.268;2023-06-14T08:30:15;97188.91;;;20.31;73.49
5284;BME280;15377;48.540;9.268;2023-06-14T08:32:42;97189.75;;;20.39;72.50
5284;BME280;15377;48.540;9.268;2023-06-14T08:35:08;97192.06;;;20.48;74.01
5284;BME280;15377;48.540;9.268;2023-06-14T08:37:38;97194.88;;;20.48;70.16
5284;BME280;15377;48.540;9.268;2023-06-14T08:40:04;97192.38;;;20.57;72.72
5284;BME280;15377;48.540;9.268;2023-06-14T08:42:32;97193.00;;;20.63;73.01
5284;BME280;15377;48.540;9.268;2023-06-14T08:44:58;97188.28;;;20.79;71.76
5284;BME280;15377;48.540;9.268;2023-06-14T08:47:35;97182.47;;;20.90;70.89
5284;BME280;15377;48.540;9.268;2023-06-14T08:50:02;97200.59;;;20.96;69.34
5284;BME280;15377;48.540;9.268;2023-06-14T08:52:33;97195.81;;;21.04;68.20
5284;BME280;15377;48.540;9.268;2023-06-14T08:55:06;97201.41;;;21.25;66.11
5284;BME280;15377;48.540;9.268;2023-06-14T08:57:32;97190.94;;;21.46;67.34
5284;BME280;15377;48.540;9.268;2023-06-14T08:59:59;97195.75;;;21.66;66.65
5284;BME280;15377;48.540;9.268;2023-06-14T09:02:30;97202.78;;;21.59;65.44
5284;BME280;15377;48.540;9.268;2023-06-14T09:04:55;97197.94;;;21.60;65.47
5284;BME280;15377;48.540;9.268;2023-06-14T09:07:24;97199.44;;;21.61;63.70
5284;BME280;15377;48.540;9.268;2023-06-14T09:10:11;97195.03;;;21.73;64.40
5284;BME280;15377;48.540;9.268;2023-06-14T09:12:37;97175.63;;;21.75;61.71
5284;BME280;15377;48.540;9.268;2023-06-14T09:15:05;97189.19;;;21.99;59.77
5284;BME280;15377;48.540;9.268;2023-06-14T09:17:38;97194.88;;;22.14;59.97
5284;BME280;15377;48.540;9.268;2023-06-14T09:20:05;97194.69;;;22.12;58.98
5284;BME280;15377;48.540;9.268;2023-06-14T09:22:35;97183.66;;;22.14;58.51
5284;BME280;15377;48.540;9.268;2023-06-14T09:25:01;97199.81;;;22.28;56.99
5284;BME280;15377;48.540;9.268;2023-06-14T09:27:27;97192.72;;;22.35;56.67
5284;BME280;15377;48.540;9.268;2023-06-14T09:29:53;97187.50;;;22.39;59.14
5284;BME280;15377;48.540;9.268;2023-06-14T09:32:18;97187.19;;;22.42;58.19
5284;BME280;15377;48.540;9.268;2023-06-14T09:34:45;97195.09;;;22.74;57.71
5284;BME280;15377;48.540;9.268;2023-06-14T09:37:10;97184.63;;;22.82;55.35
5284;BME280;15377;48.540;9.268;2023-06-14T09:39:49;97196.03;;;22.84;54.88
5284;BME280;15377;48.540;9.268;2023-06-14T09:42:18;97190.63;;;22.86;55.71
5284;BME280;15377;48.540;9.268;2023-06-14T09:44:48;97192.16;;;23.16;54.20
5284;BME280;15377;48.540;9.268;2023-06-14T09:47:15;97204.16;;;23.47;54.09
5284;BME280;15377;48.540;9.268;2023-06-14T09:49:41;97191.03;;;23.49;50.03
5284;BME280;15377;48.540;9.268;2023-06-14T09:52:13;97193.63;;;23.62;50.92
5284;BME280;15377;48.540;9.268;2023-06-14T09:54:43;97195.66;;;23.84;51.33
5284;BME280;15377;48.540;9.268;2023-06-14T09:57:12;97195.50;;;23.67;49.96
5284;BME280;15377;48.540;9.268;2023-06-14T09:59:41;97190.97;;;23.79;52.79
5284;BME280;15377;48.540;9.268;2023-06-14T10:02:34;97201.44;;;24.01;51.82
5284;BME280;15377;48.540;9.268;2023-06-14T10:05:03;97189.06;;;24.04;48.44
5284;BME280;15377;48.540;9.268;2023-06-14T10:07:40;97191.06;;;24.19;48.45
5284;BME280;15377;48.540;9.268;2023-06-14T10:10:08;97172.31;;;24.21;45.32
5284;BME280;15377;48.540;9.268;2023-06-14T10:12:33;97180.63;;;24.44;45.05
5284;BME280;15377;48.540;9.268;2023-06-14T10:15:00;97182.47;;;24.56;44.21
5284;BME280;15377;48.540;9.268;2023-06-14T10:17:56;97190.06;;;25.03;42.51
5284;BME280;15377;48.540;9.268;2023-06-14T10:23:18;97182.03;;;26.50;38.90
5284;BME280;15377;48.540;9.268;2023-06-14T10:25:44;97191.38;;;27.23;39.49
5284;BME280;15377;48.540;9.268;2023-06-14T10:28:20;97189.34;;;27.51;37.22
5284;BME280;15377;48.540;9.268;2023-06-14T10:31:07;97191.47;;;27.60;37.30
5284;BME280;15377;48.540;9.268;2023-06-14T10:33:48;97190.16;;;27.71;34.23
5284;BME280;15377;48.540;9.268;2023-06-14T10:36:25;97183.34;;;27.93;34.37
5284;BME280;15377;48.540;9.268;2023-06-14T10:39:13;97184.56;;;28.09;36.27
5284;BME280;15377;48.540;9.268;2023-06-14T10:41:40;97179.03;;;28.49;33.36
5284;BME280;15377;48.540;9.268;2023-06-14T10:46:46;97171.94;;;30.10;32.93
5284;BME280;15377;48.540;9.268;2023-06-14T10:49:11;97169.69;;;30.62;32.33
5284;BME280;15377;48.540;9.268;2023-06-14T10:51:42;97166.53;;;31.02;31.45
5284;BME280;15377;48.540;9.268;2023-06-14T10:54:20;97173.50;;;31.22;29.55
5284;BME280;15377;48.540;9.268;2023-06-14T10:56:50;97168.75;;;30.92;31.73
5284;BME280;15377;48.540;9.268;2023-06-14T10:59:17;97175.00;;;31.23;31.34
5284;BME280;15377;48.540;9.268;2023-06-14T11:04:47;97172.16;;;30.35;30.33
5284;BME280;15377;48.540;9.268;2023-06-14T11:12:56;97170.09;;;29.51;31.07
5284;BME280;15377;48.540;9.268;2023-06-14T11:15:28;97164.81;;;29.27;30.69
5284;BME280;15377;48.540;9.268;2023-06-14T11:17:53;97165.66;;;28.40;30.80
5284;BME280;15377;48.540;9.268;2023-06-14T11:20:25;97171.81;;;28.76;32.05
5284;BME280;15377;48.540;9.268;2023-06-14T11:22:51;97157.31;;;29.01;29.56
5284;BME280;15377;48.540;9.268;2023-06-14T11:25:17;97172.09;;;30.02;30.22
5284;BME280;15377;48.540;9.268;2023-06-14T11:27:43;97169.25;;;30.56;30.15
5284;BME280;15377;48.540;9.268;2023-06-14T11:30:10;97167.53;;;30.51;30.20
5284;BME280;15377;48.540;9.268;2023-06-14T11:32:36;97166.84;;;30.62;29.21
5284;BME280;15377;48.540;9.268;2023-06-14T11:35:03;97157.63;;;31.07;29.44
5284;BME280;15377;48.540;9.268;2023-06-14T11:37:29;97163.66;;;30.79;28.87
5284;BME280;15377;48.540;9.268;2023-06-14T11:39:56;97169.19;;;30.65;29.48
5284;BME280;15377;48.540;9.268;2023-06-14T11:42:22;97166.88;;;30.73;29.65
5284;BME280;15377;48.540;9.268;2023-06-14T11:44:49;97173.25;;;31.29;29.74
5284;BME280;15377;48.540;9.268;2023-06-14T11:47:15;97171.88;;;31.19;28.82
5284;BME280;15377;48.540;9.268;2023-06-14T11:49:40;97169.53;;;31.04;29.49
5284;BME280;15377;48.540;9.268;2023-06-14T11:52:07;97165.59;;;31.43;28.95
5284;BME280;15377;48.540;9.268;2023-06-14T11:54:33;97157.81;;;31.44;28.19
5284;BME280;15377;48.540;9.268;2023-06-14T11:56:58;97165.78;;;30.90;27.83
5284;BME280;15377;48.540;9.268;2023-06-14T11:59:24;97152.09;;;30.54;27.32
5284;BME280;15377;48.540;9.268;2023-06-14T12:01:52;97167.00;;;30.87;28.84
5284;BME280;15377;48.540;9.268;2023-06-14T12:04:26;97160.91;;;31.25;26.86
5284;BME280;15377;48.540;9.268;2023-06-14T12:06:52;97159.63;;;31.74;26.73
5284;BME280;15377;48.540;9.268;2023-06-14T12:09:18;97152.66;;;32.61;27.25
5284;BME280;15377;48.540;9.268;2023-06-14T12:11:45;97157.84;;;32.64;26.87
5284;BME280;15377;48.540;9.268;2023-06-14T12:14:10;97163.19;;;33.22;25.70
5284;BME280;15377;48.540;9.268;2023-06-14T12:16:38;97165.97;;;32.70;24.62
5284;BME280;15377;48.540;9.268;2023-06-14T12:19:16;97130.66;;;31.66;25.92
5284;BME280;15377;48.540;9.268;2023-06-14T12:21:43;97158.25;;;31.86;26.80
5284;BME280;15377;48.540;9.268;2023-06-14T12:24:09;97159.28;;;32.77;26.46
5284;BME280;15377;48.540;9.268;2023-06-14T12:26:41;97147.03;;;33.26;23.62
5284;BME280;15377;48.540;9.268;2023-06-14T12:29:07;97145.69;;;33.81;24.80
5284;BME280;15377;48.540;9.268;2023-06-14T12:31:32;97144.38;;;33.98;24.51
5284;BME280;15377;48.540;9.268;2023-06-14T12:33:58;97136.59;;;33.71;23.79
5284;BME280;15377;48.540;9.268;2023-06-14T12:36:24;97144.41;;;32.17;25.73
5284;BME280;15377;48.540;9.268;2023-06-14T12:38:51;97140.84;;;31.46;26.64
5284;BME280;15377;48.540;9.268;2023-06-14T12:41:19;97145.56;;;31.30;26.69
5284;BME280;15377;48.540;9.268;2023-06-14T12:43:46;97145.56;;;31.30;26.97
5284;BME280;15377;48.540;9.268;2023-06-14T12:46:11;97148.97;;;31.86;27.19
5284;BME280;15377;48.540;9.268;2023-06-14T12:48:37;97143.34;;;32.60;26.69
5284;BME280;15377;48.540;9.268;2023-06-14T12:51:02;97144.44;;;32.67;25.52
5284;BME280;15377;48.540;9.268;2023-06-14T12:53:27;97159.50;;;32.19;24.97
5284;BME280;15377;48.540;9.268;2023-06-14T12:55:53;97156.41;;;31.91;25.93
5284;BME280;15377;48.540;9.268;2023-06-14T12:58:18;97153.22;;;32.46;25.73
5284;BME280;15377;48.540;9.268;2023-06-14T13:00:45;97152.13;;;32.64;24.76
5284;BME280;15377;48.540;9.268;2023-06-14T13:03:10;97150.66;;;33.02;24.93
5284;BME280;15377;48.540;9.268;2023-06-14T13:05:36;97150.44;;;33.63;25.03
5284;BME280;15377;48.540;9.268;2023-06-14T13:08:02;97147.22;;;34.11;24.20
5284;BME280;15377;48.540;9.268;2023-06-14T13:10:28;97148.16;;;34.02;24.97
5284;BME280;15377;48.540;9.268;2023-06-14T13:12:53;97148.59;;;34.24;25.19
5284;BME280;15377;48.540;9.268;2023-06-14T13:15:19;97149.59;;;33.74;24.65
5284;BME280;15377;48.540;9.268;2023-06-14T13:17:44;97148.16;;;34.16;24.54
5284;BME280;15377;48.540;9.268;2023-06-14T13:20:14;97153.13;;;34.15;23.83